sensor_id;sensor_type;location;lat;lon;timestamp;pressure;altitude;pressure_sealevel;temperature;humidity
72636;BME280;60679;48.888;15.544;2023-05-02T00:01:36;96000.63;;;7.05;60.20
72636;BME280;60679;48.888;15.544;2023-05-02T00:04:01;96000.00;;;7.16;60.14
72636;BME280;60679;48.888;15.544;2023-05-02T00:06:29;96001.63;;;7.23;60.22
72636;BME280;60679;48.888;15.544;2023-05-02T00:08:55;96005.75;;;7.32;60.15
72636;BME280;60679;48.888;15.544;2023-05-02T00:11:21;96007.38;;;7.40;60.29
72636;BME280;60679;48.888;15.544;2023-05-02T00:13:47;96009.22;;;7.52;60.32
72636;BME280;60679;48.888;15.544;2023-05-02T00:16:12;96013.34;;;7.62;60.22
72636;BME280;60679;48.888;15.544;2023-05-02T00:18:38;96007.72;;;7.70;60.21
72636;BME280;60679;48.888;15.544;2023-05-02T00:21:03;96010.34;;;7.76;60.20
72636;BME280;60679;48.888;15.544;2023-05-02T00:23:29;96006.81;;;7.82;60.20
72636;BME280;60679;48.888;15.544;2023-05-02T00:25:54;96003.53;;;7.87;60.20
72636;BME280;60679;48.888;15.544;2023-05-02T00:28:20;96001.44;;;7.89;60.49
72636;BME280;60679;48.888;15.544;2023-05-02T00:30:45;96005.97;;;7.88;60.40
72636;BME280;60679;48.888;15.544;2023-05-02T00:33:11;96010.31;;;7.89;60.58
72636;BME280;60679;48.888;15.544;2023-05-02T00:35:38;95996.28;;;7.87;60.55
72636;BME280;60679;48.888;15.544;2023-05-02T00:38:03;95992.53;;;7.88;60.81
72636;BME280;60679;48.888;15.544;2023-05-02T00:40:30;95990.25;;;7.92;60.72
72636;BME280;60679;48.888;15.544;2023-05-02T00:42:55;95996.66;;;7.91;60.80
72636;BME280;60679;48.888;15.544;2023-05-02T00:45:21;96007.81;;;7.94;60.94
72636;BME280;60679;48.888;15.544;2023-05-02T00:47:46;96021.25;;;8.01;61.22
72636;BME280;60679;48.888;15.544;2023-05-02T00:50:12;96017.41;;;8.22;61.25
72636;BME280;60679;48.888;15.544;2023-05-02T00:52:37;96025.44;;;8.35;61.00
72636;BME280;60679;48.888;15.544;2023-05-02T00:55:03;96032.03;;;8.39;61.01
72636;BME280;60679;48.888;15.544;2023-05-02T00:57:30;96033.25;;;8.43;61.36
72636;BME280;60679;48.888;15.544;2023-05-02T00:59:55;96032.56;;;8.54;61.21
72636;BME280;60679;48.888;15.544;2023-05-02T01:02:37;96034.41;;;8.60;61.36
72636;BME280;60679;48.888;15.544;2023-05-02T01:05:14;96034.00;;;8.56;61.18
72636;BME280;60679;48.888;15.544;2023-05-02T01:10:43;96036.72;;;8.50;61.44
72636;BME280;60679;48.888;15.544;2023-05-02T01:13:27;96038.41;;;8.44;61.59
72636;BME280;60679;48.888;15.544;2023-05-02T01:15:55;96041.94;;;8.45;61.77
72636;BME280;60679;48.888;15.544;2023-05-02T01:18:24;96042.16;;;8.43;61.65
72636;BME280;60679;48.888;15.544;2023-05-02T01:20:56;96037.81;;;8.42;61.71
72636;BME280;60679;48.888;15.544;2023-05-02T01:29:08;96045.72;;;8.31;62.00
72636;BME280;60679;48.888;15.544;2023-05-02T01:31:39;96049.47;;;8.30;61.97
72636;BME280;60679;48.888;15.544;2023-05-02T01:34:08;96054.63;;;8.31;62.19
72636;BME280;60679;48.888;15.544;2023-05-02T01:36:35;96052.34;;;8.35;62.24
72636;BME280;60679;48.888;15.544;2023-05-02T01:39:03;96060.63;;;8.33;62.16
72636;BME280;60679;48.888;15.544;2023-05-02T01:41:32;96062.69;;;8.38;62.13
72636;BME280;60679;48.888;15.544;2023-05-02T01:44:00;96053.94;;;8.42;62.32
72636;BME280;60679;48.888;15.544;2023-05-02T01:46:35;96053.53;;;8.45;62.27
72636;BME280;60679;48.888;15.544;2023-05-02T01:49:05;96049.75;;;8.53;62.25
72636;BME280;60679;48.888;15.544;2023-05-02T01:51:34;96059.66;;;8.59;62.43
72636;BME280;60679;48.888;15.544;2023-05-02T01:54:06;96057.53;;;8.67;62.19
72636;BME280;60679;48.888;15.544;2023-05-02T01:56:35;96060.63;;;8.71;62.50
72636;BME280;60679;48.888;15.544;2023-05-02T01:59:04;96058.75;;;8.72;62.46
72636;BME280;60679;48.888;15.544;2023-05-02T02:01:31;96069.09;;;8.75;62.70
72636;BME280;60679;48.888;15.544;2023-05-02T02:03:59;96069.25;;;8.80;62.48
72636;BME280;60679;48.888;15.544;2023-05-02T02:06:25;96070.25;;;8.85;62.65
72636;BME280;60679;48.888;15.544;2023-05-02T02:08:51;96080.75;;;8.93;62.66
72636;BME280;60679;48.888;15.544;2023-05-02T02:11:27;96075.69;;;9.03;62.74
72636;BME280;60679;48.888;15.544;2023-05-02T02:14:04;96077.53;;;9.09;62.69
72636;BME280;60679;48.888;15.544;2023-05-02T02:16:32;96081.00;;;9.16;62.51
72636;BME280;60679;48.888;15.544;2023-05-02T02:19:04;96078.47;;;9.21;62.71
72636;BME280;60679;48.888;15.544;2023-05-02T02:21:31;96076.75;;;9.27;62.68
72636;BME280;60679;48.888;15.544;2023-05-02T02:24:01;96087.09;;;9.30;62.82
72636;BME280;60679;48.888;15.544;2023-05-02T02:26:27;96075.06;;;9.33;62.92
72636;BME280;60679;48.888;15.544;2023-05-02T02:28:52;96079.41;;;9.34;62.93
72636;BME280;60679;48.888;15.544;2023-05-02T02:31:18;96080.00;;;9.36;62.79
72636;BME280;60679;48.888;15.544;2023-05-02T02:33:43;96077.91;;;9.38;62.99
72636;BME280;60679;48.888;15.544;2023-05-02T02:38:49;96090.94;;;9.41;63.41
72636;BME280;60679;48.888;15.544;2023-05-02T02:41:31;96091.19;;;9.39;63.02
72636;BME280;60679;48.888;15.544;2023-05-02T02:44:10;96098.44;;;9.39;63.43
72636;BME280;60679;48.888;15.544;2023-05-02T02:46:50;96100.69;;;9.42;63.30
72636;BME280;60679;48.888;15.544;2023-05-02T02:51:54;96101.00;;;9.27;63.32
72636;BME280;60679;48.888;15.544;2023-05-02T02:54:29;96103.31;;;9.23;63.72
72636;BME280;60679;48.888;15.544;2023-05-02T02:57:06;96102.66;;;9.28;63.68
72636;BME280;60679;48.888;15.544;2023-05-02T02:59:42;96113.59;;;9.33;63.86
72636;BME280;60679;48.888;15.544;2023-05-02T03:02:14;96117.28;;;9.39;63.94
72636;BME280;60679;48.888;15.544;2023-05-02T03:04:42;96106.28;;;9.40;64.03
72636;BME280;60679;48.888;15.544;2023-05-02T03:07:08;96113.09;;;9.43;63.94
72636;BME280;60679;48.888;15.544;2023-05-02T03:09:44;96115.00;;;9.42;64.04
72636;BME280;60679;48.888;15.544;2023-05-02T03:12:10;96109.81;;;9.41;64.21
72636;BME280;60679;48.888;15.544;2023-05-02T03:14:37;96125.97;;;9.41;64.05
72636;BME280;60679;48.888;15.544;2023-05-02T03:17:03;96118.13;;;9.39;64.26
72636;BME280;60679;48.888;15.544;2023-05-02T03:19:28;96125.56;;;9.37;64.15
72636;BME280;60679;48.888;15.544;2023-05-02T03:21:54;96126.47;;;9.31;64.40
72636;BME280;60679;48.888;15.544;2023-05-02T03:24:20;96126.28;;;9.26;64.47
72636;BME280;60679;48.888;15.544;2023-05-02T03:26:46;96125.94;;;9.22;64.64
72636;BME280;60679;48.888;15.544;2023-05-02T03:29:13;96132.13;;;9.23;64.62
72636;BME280;60679;48.888;15.544;2023-05-02T03:31:38;96129.41;;;9.23;64.60
72636;BME280;60679;48.888;15.544;2023-05-02T03:34:03;96125.09;;;9.22;64.61
72636;BME280;60679;48.888;15.544;2023-05-02T03:36:29;96129.66;;;9.21;64.63
72636;BME280;60679;48.888;15.544;2023-05-02T03:38:54;96128.81;;;9.21;64.88
72636;BME280;60679;48.888;15.544;2023-05-02T03:41:20;96131.31;;;9.22;64.90
72636;BME280;60679;48.888;15.544;2023-05-02T03:43:45;96129.22;;;9.24;64.88
72636;BME280;60679;48.888;15.544;2023-05-02T03:46:11;96128.19;;;9.25;65.09
72636;BME280;60679;48.888;15.544;2023-05-02T03:48:37;96136.47;;;9.24;64.90
72636;BME280;60679;48.888;15.544;2023-05-02T03:51:04;96135.19;;;9.26;64.83
72636;BME280;60679;48.888;15.544;2023-05-02T03:53:30;96140.38;;;9.28;65.11
72636;BME280;60679;48.888;15.544;2023-05-02T03:55:56;96136.63;;;9.29;64.96
72636;BME280;60679;48.888;15.544;2023-05-02T03:58:22;96141.00;;;9.30;64.86
72636;BME280;60679;48.888;15.544;2023-05-02T04:00:47;96139.31;;;9.29;65.11
72636;BME280;60679;48.888;15.544;2023-05-02T04:03:13;96153.44;;;9.31;65.27
72636;BME280;60679;48.888;15.544;2023-05-02T04:05:38;96155.88;;;9.33;65.05
72636;BME280;60679;48.888;15.544;2023-05-02T04:08:04;96152.91;;;9.41;65.07
72636;BME280;60679;48.888;15.544;2023-05-02T04:10:29;96154.53;;;9.48;65.09
72636;BME280;60679;48.888;15.544;2023-05-02T04:12:54;96161.28;;;9.57;65.28
72636;BME280;60679;48.888;15.544;2023-05-02T04:15:20;96163.69;;;9.65;65.05
72636;BME280;60679;48.888;15.544;2023-05-02T04:17:45;96171.34;;;9.68;64.95
72636;BME280;60679;48.888;15.544;2023-05-02T04:20:11;96169.28;;;9.70;64.86
72636;BME280;60679;48.888;15.544;2023-05-02T04:22:36;96166.34;;;9.72;64.95
72636;BME280;60679;48.888;15.544;2023-05-02T04:25:04;96172.78;;;9.71;64.69
72636;BME280;60679;48.888;15.544;2023-05-02T04:27:30;96179.41;;;9.75;65.09
72636;BME280;60679;48.888;15.544;2023-05-02T04:29:56;96180.19;;;9.82;65.02
72636;BME280;60679;48.888;15.544;2023-05-02T04:32:21;96179.91;;;9.90;64.79
72636;BME280;60679;48.888;15.544;2023-05-02T04:34:47;96183.34;;;9.97;64.71
72636;BME280;60679;48.888;15.544;2023-05-02T04:37:12;96186.38;;;10.07;64.48
72636;BME280;60679;48.888;15.544;2023-05-02T04:39:38;96186.53;;;10.12;64.40
72636;BME280;60679;48.888;15.544;2023-05-02T04:42:03;96189.63;;;10.16;64.31
72636;BME280;60679;48.888;15.544;2023-05-02T04:44:28;96192.50;;;10.21;64.64
72636;BME280;60679;48.888;15.544;2023-05-02T04:46:54;96198.28;;;10.24;64.49
72636;BME280;60679;48.888;15.544;2023-05-02T04:49:19;96200.06;;;10.30;64.42
72636;BME280;60679;48.888;15.544;2023-05-02T04:51:45;96203.28;;;10.39;64.25
72636;BME280;60679;48.888;15.544;2023-05-02T04:54:11;96199.84;;;10.50;64.09
72636;BME280;60679;48.888;15.544;2023-05-02T04:56:36;96201.19;;;10.59;64.31
72636;BME280;60679;48.888;15.544;2023-05-02T04:59:02;96207.34;;;10.66;64.39
72636;BME280;60679;48.888;15.544;2023-05-02T05:01:28;96207.94;;;10.68;64.24
72636;BME280;60679;48.888;15.544;2023-05-02T05:03:54;96209.63;;;10.69;64.33
72636;BME280;60679;48.888;15.544;2023-05-02T05:06:20;96206.47;;;10.72;64.25
72636;BME280;60679;48.888;15.544;2023-05-02T05:08:45;96205.53;;;10.78;64.20
72636;BME280;60679;48.888;15.544;2023-05-02T05:11:11;96202.75;;;10.85;64.22
72636;BME280;60679;48.888;15.544;2023-05-02T05:13:36;96210.78;;;10.91;64.27
72636;BME280;60679;48.888;15.544;2023-05-02T05:16:02;96211.31;;;11.00;63.82
72636;BME280;60679;48.888;15.544;2023-05-02T05:18:29;96212.16;;;11.12;63.72
72636;BME280;60679;48.888;15.544;2023-05-02T05:20:54;96226.56;;;11.24;63.66
72636;BME280;60679;48.888;15.544;2023-05-02T05:23:21;96222.41;;;11.40;63.45
72636;BME280;60679;48.888;15.544;2023-05-02T05:25:46;96216.53;;;11.54;63.36
72636;BME280;60679;48.888;15.544;2023-05-02T05:28:12;96224.28;;;11.69;63.14
72636;BME280;60679;48.888;15.544;2023-05-02T05:30:37;96224.75;;;11.78;62.84
72636;BME280;60679;48.888;15.544;2023-05-02T05:33:03;96228.53;;;11.88;62.73
72636;BME280;60679;48.888;15.544;2023-05-02T05:35:28;96223.75;;;12.02;62.51
72636;BME280;60679;48.888;15.544;2023-05-02T05:37:54;96232.47;;;12.15;62.26
72636;BME280;60679;48.888;15.544;2023-05-02T05:40:19;96237.19;;;12.20;62.24
72636;BME280;60679;48.888;15.544;2023-05-02T05:42:47;96230.00;;;12.26;62.28
72636;BME280;60679;48.888;15.544;2023-05-02T05:45:13;96231.06;;;12.36;62.18
72636;BME280;60679;48.888;15.544;2023-05-02T05:47:39;96236.00;;;12.39;61.83
72636;BME280;60679;48.888;15.544;2023-05-02T05:50:04;96238.59;;;12.46;61.78
72636;BME280;60679;48.888;15.544;2023-05-02T05:52:30;96236.13;;;12.56;61.82
72636;BME280;60679;48.888;15.544;2023-05-02T05:54:55;96246.34;;;12.65;61.51
72636;BME280;60679;48.888;15.544;2023-05-02T05:57:21;96243.38;;;12.79;61.33
72636;BME280;60679;48.888;15.544;2023-05-02T05:59:47;96238.09;;;12.84;61.26
72636;BME280;60679;48.888;15.544;2023-05-02T06:02:12;96247.84;;;12.96;61.23
72636;BME280;60679;48.888;15.544;2023-05-02T06:04:39;96250.19;;;13.04;61.07
72636;BME280;60679;48.888;15.544;2023-05-02T06:07:05;96256.22;;;13.06;60.95
72636;BME280;60679;48.888;15.544;2023-05-02T06:09:30;96243.94;;;13.15;60.87
72636;BME280;60679;48.888;15.544;2023-05-02T06:11:56;96242.75;;;13.23;60.92
72636;BME280;60679;48.888;15.544;2023-05-02T06:14:21;96244.94;;;13.38;60.99
72636;BME280;60679;48.888;15.544;2023-05-02T06:16:46;96250.81;;;13.46;60.77
72636;BME280;60679;48.888;15.544;2023-05-02T06:19:12;96253.34;;;13.53;60.60
72636;BME280;60679;48.888;15.544;2023-05-02T06:21:37;96255.19;;;13.64;60.55
72636;BME280;60679;48.888;15.544;2023-05-02T06:24:03;96256.94;;;13.70;60.24
72636;BME280;60679;48.888;15.544;2023-05-02T06:26:28;96256.09;;;13.69;60.31
72636;BME280;60679;48.888;15.544;2023-05-02T06:28:54;96265.59;;;13.83;60.10
72636;BME280;60679;48.888;15.544;2023-05-02T06:31:20;96265.38;;;14.02;59.84
72636;BME280;60679;48.888;15.544;2023-05-02T06:33:45;96268.75;;;14.25;59.56
72636;BME280;60679;48.888;15.544;2023-05-02T06:36:10;96265.50;;;14.40;59.10
72636;BME280;60679;48.888;15.544;2023-05-02T06:38:36;96260.88;;;14.57;59.02
72636;BME280;60679;48.888;15.544;2023-05-02T06:41:01;96262.94;;;14.67;58.65
72636;BME280;60679;48.888;15.544;2023-05-02T06:43:26;96264.41;;;14.74;58.59
72636;BME280;60679;48.888;15.544;2023-05-02T06:45:53;96270.91;;;14.90;58.30
72636;BME280;60679;48.888;15.544;2023-05-02T06:48:19;96274.97;;;15.09;58.06
72636;BME280;60679;48.888;15.544;2023-05-02T06:50:46;96277.47;;;15.32;57.72
72636;BME280;60679;48.888;15.544;2023-05-02T06:53:11;96272.44;;;15.46;57.45
72636;BME280;60679;48.888;15.544;2023-05-02T06:55:38;96276.31;;;15.50;57.32
72636;BME280;60679;48.888;15.544;2023-05-02T06:58:03;96287.22;;;15.50;57.27
72636;BME280;60679;48.888;15.544;2023-05-02T07:00:29;96283.09;;;15.47;57.44
72636;BME280;60679;48.888;15.544;2023-05-02T07:02:54;96287.06;;;15.62;57.68
72636;BME280;60679;48.888;15.544;2023-05-02T07:05:20;96288.41;;;15.59;57.36
72636;BME280;60679;48.888;15.544;2023-05-02T07:07:46;96283.84;;;15.65;57.16
72636;BME280;60679;48.888;15.544;2023-05-02T07:10:11;96279.81;;;15.94;56.71
72636;BME280;60679;48.888;15.544;2023-05-02T07:12:37;96286.72;;;16.33;55.84
72636;BME280;60679;48.888;15.544;2023-05-02T07:15:04;96287.22;;;16.57;55.66
72636;BME280;60679;48.888;15.544;2023-05-02T07:17:30;96288.91;;;16.63;55.62
72636;BME280;60679;48.888;15.544;2023-05-02T07:19:56;96290.16;;;16.50;55.31
72636;BME280;60679;48.888;15.544;2023-05-02T07:22:21;96288.50;;;16.49;55.48
72636;BME280;60679;48.888;15.544;2023-05-02T07:24:47;96283.59;;;16.51;55.38
72636;BME280;60679;48.888;15.544;2023-05-02T07:27:12;96289.19;;;16.61;55.39
72636;BME280;60679;48.888;15.544;2023-05-02T07:29:38;96292.88;;;16.50;55.35
72636;BME280;60679;48.888;15.544;2023-05-02T07:32:04;96294.75;;;16.45;55.75
72636;BME280;60679;48.888;15.544;2023-05-02T07:34:32;96300.06;;;16.56;55.39
72636;BME280;60679;48.888;15.544;2023-05-02T07:36:58;96299.09;;;16.72;55.33
72636;BME280;60679;48.888;15.544;2023-05-02T07:39:24;96307.84;;;16.48;55.56
72636;BME280;60679;48.888;15.544;2023-05-02T07:41:53;96302.50;;;16.58;55.63
72636;BME280;60679;48.888;15.544;2023-05-02T07:44:18;96314.25;;;16.58;55.30
72636;BME280;60679;48.888;15.544;2023-05-02T07:46:44;96315.41;;;16.67;55.11
72636;BME280;60679;48.888;15.544;2023-05-02T07:49:09;96308.97;;;16.84;55.03
72636;BME280;60679;48.888;15.544;2023-05-02T07:51:35;96313.13;;;16.91;54.50
72636;BME280;60679;48.888;15.544;2023-05-02T07:54:01;96318.06;;;16.99;54.56
72636;BME280;60679;48.888;15.544;2023-05-02T07:56:26;96317.63;;;17.12;54.35
72636;BME280;60679;48.888;15.544;2023-05-02T07:58:52;96324.06;;;16.96;54.39
72636;BME280;60679;48.888;15.544;2023-05-02T08:01:17;96329.03;;;16.67;54.70
72636;BME280;60679;48.888;15.544;2023-05-02T08:03:44;96325.28;;;16.73;54.64
72636;BME280;60679;48.888;15.544;2023-05-02T08:06:09;96327.00;;;16.85;54.71
72636;BME280;60679;48.888;15.544;2023-05-02T08:08:35;96339.56;;;16.91;54.64
72636;BME280;60679;48.888;15.544;2023-05-02T08:11:00;96333.31;;;16.90;54.63
72636;BME280;60679;48.888;15.544;2023-05-02T08:13:26;96329.50;;;16.96;54.42
72636;BME280;60679;48.888;15.544;2023-05-02T08:15:51;96336.97;;;17.06;54.40
72636;BME280;60679;48.888;15.544;2023-05-02T08:18:25;96329.44;;;17.23;54.15
72636;BME280;60679;48.888;15.544;2023-05-02T08:20:50;96336.72;;;17.54;53.47
72636;BME280;60679;48.888;15.544;2023-05-02T08:23:16;96336.56;;;17.76;53.09
72636;BME280;60679;48.888;15.544;2023-05-02T08:25:41;96326.25;;;17.98;52.56
72636;BME280;60679;48.888;15.544;2023-05-02T08:28:06;96332.88;;;18.27;51.98
72636;BME280;60679;48.888;15.544;2023-05-02T08:30:32;96333.78;;;18.53;51.54
72636;BME280;60679;48.888;15.544;2023-05-02T08:32:57;96331.88;;;18.79;51.24
72636;BME280;60679;48.888;15.544;2023-05-02T08:35:23;96342.53;;;19.16;50.45
72636;BME280;60679;48.888;15.544;2023-05-02T08:37:48;96336.22;;;19.30;50.06
72636;BME280;60679;48.888;15.544;2023-05-02T08:40:16;96341.63;;;19.66;49.76
72636;BME280;60679;48.888;15.544;2023-05-02T08:42:42;96350.81;;;20.00;49.22
72636;BME280;60679;48.888;15.544;2023-05-02T08:45:10;96345.78;;;20.17;49.21
72636;BME280;60679;48.888;15.544;2023-05-02T08:47:38;96335.31;;;20.34;49.24
72636;BME280;60679;48.888;15.544;2023-05-02T08:50:05;96347.81;;;20.50;48.59
72636;BME280;60679;48.888;15.544;2023-05-02T08:52:31;96342.25;;;20.60;48.30
72636;BME280;60679;48.888;15.544;2023-05-02T08:54:59;96345.91;;;20.51;48.57
72636;BME280;60679;48.888;15.544;2023-05-02T08:57:28;96353.09;;;20.42;48.54
72636;BME280;60679;48.888;15.544;2023-05-02T08:59:54;96354.75;;;20.43;48.33
72636;BME280;60679;48.888;15.544;2023-05-02T09:05:41;96354.00;;;20.27;48.84
72636;BME280;60679;48.888;15.544;2023-05-02T09:08:07;96368.81;;;20.16;48.92
72636;BME280;60679;48.888;15.544;2023-05-02T09:10:34;96362.78;;;20.19;48.73
72636;BME280;60679;48.888;15.544;2023-05-02T09:13:37;96364.72;;;20.13;48.46
72636;BME280;60679;48.888;15.544;2023-05-02T09:16:08;96361.06;;;20.43;47.75
72636;BME280;60679;48.888;15.544;2023-05-02T09:18:35;96367.03;;;20.50;47.97
72636;BME280;60679;48.888;15.544;2023-05-02T09:21:06;96365.41;;;20.44;48.13
72636;BME280;60679;48.888;15.544;2023-05-02T09:23:37;96368.84;;;20.65;47.47
72636;BME280;60679;48.888;15.544;2023-05-02T09:28:45;96368.06;;;20.59;47.86
72636;BME280;60679;48.888;15.544;2023-05-02T09:31:13;96372.78;;;20.54;47.70
72636;BME280;60679;48.888;15.544;2023-05-02T09:33:39;96372.28;;;20.42;47.48
72636;BME280;60679;48.888;15.544;2023-05-02T09:36:07;96375.38;;;20.30;47.46
72636;BME280;60679;48.888;15.544;2023-05-02T09:38:33;96380.09;;;20.63;47.01
72636;BME280;60679;48.888;15.544;2023-05-02T09:40:59;96375.63;;;21.16;46.07
72636;BME280;60679;48.888;15.544;2023-05-02T09:43:25;96373.25;;;21.91;45.18
72636;BME280;60679;48.888;15.544;2023-05-02T09:46:01;96376.47;;;22.40;44.46
72636;BME280;60679;48.888;15.544;2023-05-02T09:48:28;96375.63;;;22.21;44.45
72636;BME280;60679;48.888;15.544;2023-05-02T09:50:54;96380.00;;;21.75;44.75
72636;BME280;60679;48.888;15.544;2023-05-02T09:53:20;96385.91;;;21.35;45.38
72636;BME280;60679;48.888;15.544;2023-05-02T09:55:45;96379.00;;;21.37;45.80
72636;BME280;60679;48.888;15.544;2023-05-02T09:58:21;96382.00;;;21.41;45.40
72636;BME280;60679;48.888;15.544;2023-05-02T10:00:48;96387.63;;;21.54;45.50
72636;BME280;60679;48.888;15.544;2023-05-02T10:03:16;96385.06;;;21.63;45.03
72636;BME280;60679;48.888;15.544;2023-05-02T10:05:45;96384.50;;;21.66;45.10
72636;BME280;60679;48.888;15.544;2023-05-02T10:08:12;96386.09;;;21.72;44.56
72636;BME280;60679;48.888;15.544;2023-05-02T10:10:39;96383.88;;;21.45;44.95
72636;BME280;60679;48.888;15.544;2023-05-02T10:13:06;96382.31;;;21.39;45.10
72636;BME280;60679;48.888;15.544;2023-05-02T10:15:34;96390.81;;;21.66;44.58
72636;BME280;60679;48.888;15.544;2023-05-02T10:18:07;96390.25;;;21.93;44.51
72636;BME280;60679;48.888;15.544;2023-05-02T10:20:42;96394.88;;;22.21;43.94
72636;BME280;60679;48.888;15.544;2023-05-02T10:23:09;96393.94;;;22.07;43.65
72636;BME280;60679;48.888;15.544;2023-05-02T10:25:34;96391.81;;;22.47;43.53
72636;BME280;60679;48.888;15.544;2023-05-02T10:28:00;96389.53;;;23.10;42.68
72636;BME280;60679;48.888;15.544;2023-05-02T10:30:27;96389.34;;;23.38;42.13
72636;BME280;60679;48.888;15.544;2023-05-02T10:32:52;96394.66;;;24.08;40.95
72636;BME280;60679;48.888;15.544;2023-05-02T10:35:21;96380.53;;;25.13;39.37
72636;BME280;60679;48.888;15.544;2023-05-02T10:37:49;96389.41;;;25.99;38.17
72636;BME280;60679;48.888;15.544;2023-05-02T10:40:15;96390.75;;;25.35;39.47
72636;BME280;60679;48.888;15.544;2023-05-02T10:42:45;96387.72;;;25.01;39.84
72636;BME280;60679;48.888;15.544;2023-05-02T10:45:28;96393.47;;;24.55;40.43
72636;BME280;60679;48.888;15.544;2023-05-02T10:50:45;96388.03;;;26.19;37.87
72636;BME280;60679;48.888;15.544;2023-05-02T10:56:20;96396.97;;;25.63;38.76
72636;BME280;60679;48.888;15.544;2023-05-02T10:58:48;96392.25;;;26.64;37.27
72636;BME280;60679;48.888;15.544;2023-05-02T11:03:55;96390.56;;;26.46;37.13
72636;BME280;60679;48.888;15.544;2023-05-02T11:06:22;96395.28;;;25.75;38.41
72636;BME280;60679;48.888;15.544;2023-05-02T11:08:47;96388.72;;;26.89;36.63
72636;BME280;60679;48.888;15.544;2023-05-02T11:11:41;96391.19;;;26.34;36.85
72636;BME280;60679;48.888;15.544;2023-05-02T11:14:09;96398.50;;;25.69;37.72
72636;BME280;60679;48.888;15.544;2023-05-02T11:24:51;96398.16;;;23.54;40.40
72636;BME280;60679;48.888;15.544;2023-05-02T11:35:25;96404.38;;;23.92;39.28
72636;BME280;60679;48.888;15.544;2023-05-02T11:37:57;96404.38;;;23.92;39.32
72636;BME280;60679;48.888;15.544;2023-05-02T11:40:24;96410.59;;;23.00;40.70
72636;BME280;60679;48.888;15.544;2023-05-02T11:42:49;96414.34;;;22.06;42.39
72636;BME280;60679;48.888;15.544;2023-05-02T11:45:15;96413.69;;;21.62;42.28
72636;BME280;60679;48.888;15.544;2023-05-02T11:47:41;96415.69;;;21.51;42.38
72636;BME280;60679;48.888;15.544;2023-05-02T11:50:08;96419.13;;;21.38;42.80
72636;BME280;60679;48.888;15.544;2023-05-02T11:52:41;96421.09;;;21.33;42.91
72636;BME280;60679;48.888;15.544;2023-05-02T11:55:11;96422.34;;;21.45;42.35
72636;BME280;60679;48.888;15.544;2023-05-02T11:57:38;96421.25;;;21.46;42.10
72636;BME280;60679;48.888;15.544;2023-05-02T12:00:04;96431.31;;;21.27;42.67
72636;BME280;60679;48.888;15.544;2023-05-02T12:02:38;96428.16;;;20.66;43.23
72636;BME280;60679;48.888;15.544;2023-05-02T12:05:06;96444.06;;;20.64;43.62
72636;BME280;60679;48.888;15.544;2023-05-02T12:07:39;96437.72;;;20.68;43.34
72636;BME280;60679;48.888;15.544;2023-05-02T12:10:06;96430.47;;;20.88;42.94
72636;BME280;60679;48.888;15.544;2023-05-02T12:12:32;96439.94;;;21.10;42.69
72636;BME280;60679;48.888;15.544;2023-05-02T12:15:06;96433.03;;;21.18;42.55
72636;BME280;60679;48.888;15.544;2023-05-02T12:17:33;96441.19;;;21.28;41.97
72636;BME280;60679;48.888;15.544;2023-05-02T12:20:03;96433.06;;;21.75;41.58
72636;BME280;60679;48.888;15.544;2023-05-02T12:22:29;96428.72;;;22.46;40.51
72636;BME280;60679;48.888;15.544;2023-05-02T12:24:55;96427.56;;;23.45;39.16
72636;BME280;60679;48.888;15.544;2023-05-02T12:27:20;96432.41;;;23.67;39.01
72636;BME280;60679;48.888;15.544;2023-05-02T12:29:47;96432.19;;;24.09;38.89
72636;BME280;60679;48.888;15.544;2023-05-02T12:32:14;96432.03;;;24.46;38.25
72636;BME280;60679;48.888;15.544;2023-05-02T12:34:41;96431.50;;;24.31;38.51
72636;BME280;60679;48.888;15.544;2023-05-02T12:37:07;96428.88;;;23.80;39.47
72636;BME280;60679;48.888;15.544;2023-05-02T12:39:51;96435.25;;;23.48;39.63
72636;BME280;60679;48.888;15.544;2023-05-02T12:42:23;96442.31;;;22.79;40.75
72636;BME280;60679;48.888;15.544;2023-05-02T12:44:50;96436.03;;;22.08;41.70
72636;BME280;60679;48.888;15.544;2023-05-02T12:47:21;96439.44;;;21.37;42.32
72636;BME280;60679;48.888;15.544;2023-05-02T12:49:53;96441.13;;;20.94;43.09
72636;BME280;60679;48.888;15.544;2023-05-02T12:52:20;96448.75;;;20.58;42.94
72636;BME280;60679;48.888;15.544;2023-05-02T12:54:46;96450.50;;;20.24;43.43
72636;BME280;60679;48.888;15.544;2023-05-02T12:57:25;96437.16;;;20.02;43.74
72636;BME280;60679;48.888;15.544;2023-05-02T12:59:53;96448.09;;;20.12;43.53
72636;BME280;60679;48.888;15.544;2023-05-02T13:02:19;96450.28;;;20.21;43.45
72636;BME280;60679;48.888;15.544;2023-05-02T13:04:45;96453.88;;;20.06;43.79
72636;BME280;60679;48.888;15.544;2023-05-02T13:07:11;96452.34;;;19.49;44.61
72636;BME280;60679;48.888;15.544;2023-05-02T13:09:36;96459.66;;;18.83;45.88
72636;BME280;60679;48.888;15.544;2023-05-02T13:12:02;96463.34;;;18.37;46.69
72636;BME280;60679;48.888;15.544;2023-05-02T13:14:28;96462.31;;;17.91;47.17
72636;BME280;60679;48.888;15.544;2023-05-02T13:16:54;96457.75;;;17.60;47.72
72636;BME280;60679;48.888;15.544;2023-05-02T13:19:22;96462.25;;;17.44;48.04
72636;BME280;60679;48.888;15.544;2023-05-02T13:21:47;96463.56;;;17.37;48.53
72636;BME280;60679;48.888;15.544;2023-05-02T13:24:14;96460.78;;;17.31;48.26
72636;BME280;60679;48.888;15.544;2023-05-02T13:26:41;96457.22;;;17.31;48.58
72636;BME280;60679;48.888;15.544;2023-05-02T13:29:06;96453.72;;;17.36;48.42
72636;BME280;60679;48.888;15.544;2023-05-02T13:31:36;96449.84;;;17.58;48.37
72636;BME280;60679;48.888;15.544;2023-05-02T13:34:02;96452.34;;;17.70;47.98
72636;BME280;60679;48.888;15.544;2023-05-02T13:36:28;96445.91;;;17.86;47.89
72636;BME280;60679;48.888;15.544;2023-05-02T13:38:53;96453.06;;;18.02;48.00